createdAt,value
2023-04-26T00:02:04.743Z,9.87
2023-04-26T00:04:32.255Z,9.91
2023-04-26T00:07:00.579Z,9.96
2023-04-26T00:09:27.947Z,9.94
2023-04-26T00:11:55.210Z,9.94
2023-04-26T00:14:22.484Z,9.93
2023-04-26T00:16:49.750Z,9.79
2023-04-26T00:19:17.763Z,9.90
2023-04-26T00:21:44.992Z,9.85
2023-04-26T00:24:12.281Z,9.73
2023-04-26T00:26:39.490Z,9.75
2023-04-26T00:29:07.210Z,9.73
2023-04-26T00:31:34.506Z,9.76
2023-04-26T00:34:01.919Z,9.85
2023-04-26T00:36:29.147Z,9.85
2023-04-26T00:38:56.468Z,9.79
2023-04-26T00:41:24.417Z,9.91
2023-04-26T00:43:51.707Z,9.85
2023-04-26T00:46:18.989Z,9.76
2023-04-26T00:48:47.200Z,9.73
2023-04-26T00:51:14.684Z,9.78
2023-04-26T00:53:42.325Z,9.73
2023-04-26T00:56:09.962Z,9.73
2023-04-26T00:58:37.688Z,9.79
2023-04-26T01:01:04.979Z,9.80
2023-04-26T01:03:32.486Z,9.86
2023-04-26T01:06:01.143Z,9.89
2023-04-26T01:08:28.459Z,9.80
2023-04-26T01:10:58.266Z,9.83
2023-04-26T01:13:26.218Z,9.82
2023-04-26T01:15:53.481Z,9.68
2023-04-26T01:18:20.881Z,9.75
2023-04-26T01:20:48.560Z,9.70
2023-04-26T01:23:16.030Z,9.63
2023-04-26T01:25:43.265Z,9.56
2023-04-26T01:28:10.562Z,9.45
2023-04-26T01:30:37.778Z,9.39
2023-04-26T01:33:05.862Z,9.36
2023-04-26T01:35:33.646Z,9.30
2023-04-26T01:38:00.987Z,9.41
2023-04-26T01:40:28.529Z,9.36
2023-04-26T01:42:56.296Z,9.38
2023-04-26T01:45:24.136Z,9.45
2023-04-26T01:48:09.875Z,9.41
2023-04-26T01:50:37.277Z,9.42
2023-04-26T01:53:04.683Z,9.35
2023-04-26T01:55:31.986Z,9.24
2023-04-26T01:57:59.229Z,9.24
2023-04-26T02:00:28.254Z,9.21
2023-04-26T02:02:58.709Z,9.14
2023-04-26T02:05:26.191Z,9.21
2023-04-26T02:07:53.504Z,9.18
2023-04-26T02:10:21.076Z,9.14
2023-04-26T02:12:48.272Z,9.38
2023-04-26T02:15:15.691Z,9.39
2023-04-26T02:17:42.976Z,9.39
2023-04-26T02:20:11.506Z,9.46
2023-04-26T02:22:38.834Z,9.43
2023-04-26T02:25:07.193Z,9.38
2023-04-26T02:27:34.493Z,9.22
2023-04-26T02:30:01.813Z,9.20
2023-04-26T02:32:29.487Z,9.10
2023-04-26T02:34:57.892Z,9.05
2023-04-26T02:37:26.770Z,9.15
2023-04-26T02:39:54.141Z,9.07
2023-04-26T02:42:21.732Z,9.08
2023-04-26T02:44:49.162Z,9.21
2023-04-26T02:47:16.947Z,9.15
2023-04-26T02:49:44.384Z,9.03
2023-04-26T02:52:11.753Z,8.88
2023-04-26T02:54:39.099Z,8.77
2023-04-26T02:57:06.397Z,8.83
2023-04-26T02:59:33.757Z,8.94
2023-04-26T03:02:01.102Z,8.85
2023-04-26T03:04:28.936Z,8.77
2023-04-26T03:06:56.254Z,8.80
2023-04-26T03:09:23.820Z,8.76
2023-04-26T03:11:52.382Z,8.77
2023-04-26T03:14:20.130Z,8.79
2023-04-26T03:16:48.662Z,8.63
2023-04-26T03:19:16.161Z,8.73
2023-04-26T03:21:44.131Z,8.64
2023-04-26T03:24:11.857Z,8.69
2023-04-26T03:26:39.250Z,8.60
2023-04-26T03:29:07.728Z,8.48
2023-04-26T03:31:35.021Z,8.54
2023-04-26T03:34:02.678Z,8.50
2023-04-26T03:36:30.005Z,8.50
2023-04-26T03:38:57.504Z,8.39
2023-04-26T03:41:25.362Z,8.45
2023-04-26T03:43:54.395Z,8.42
2023-04-26T03:46:21.745Z,8.29
2023-04-26T03:48:49.418Z,8.25
2023-04-26T03:51:17.196Z,8.12
2023-04-26T03:53:46.910Z,8.24
2023-04-26T03:56:14.298Z,8.02
2023-04-26T03:58:42.227Z,8.04
2023-04-26T04:01:09.523Z,8.22
2023-04-26T04:03:40.049Z,8.02
2023-04-26T04:06:08.810Z,8.01
2023-04-26T04:08:36.138Z,7.87
2023-04-26T04:11:03.503Z,7.84
2023-04-26T04:13:31.713Z,7.97
2023-04-26T04:15:59.117Z,7.91
2023-04-26T04:18:26.617Z,7.91
2023-04-26T04:20:53.998Z,7.90
2023-04-26T04:23:21.590Z,7.90
2023-04-26T04:25:49.283Z,7.91
2023-04-26T04:28:16.599Z,7.91
2023-04-26T04:30:46.387Z,7.98
2023-04-26T04:33:14.561Z,8.09
2023-04-26T04:35:42.031Z,8.14
2023-04-26T04:38:09.302Z,8.18
2023-04-26T04:40:36.820Z,8.16
2023-04-26T04:43:04.616Z,8.16
2023-04-26T04:45:33.022Z,8.28
2023-04-26T04:48:01.515Z,8.29
2023-04-26T04:50:29.421Z,8.33
2023-04-26T04:52:56.795Z,8.42
2023-04-26T04:55:24.479Z,8.43
2023-04-26T04:57:52.236Z,8.42
2023-04-26T05:00:20.158Z,8.42
2023-04-26T05:02:52.300Z,8.49
2023-04-26T05:05:20.610Z,8.45
2023-04-26T05:07:48.013Z,8.43
2023-04-26T05:10:16.083Z,8.59
2023-04-26T05:12:43.568Z,8.81
2023-04-26T05:15:11.134Z,8.87
2023-04-26T05:17:39.398Z,8.99
2023-04-26T05:20:18.785Z,8.97
2023-04-26T05:22:47.208Z,9.20
2023-04-26T05:25:14.856Z,9.24
2023-04-26T05:27:43.535Z,9.61
2023-04-26T05:30:20.456Z,9.68
2023-04-26T05:32:57.731Z,9.69
2023-04-26T05:35:35.545Z,9.62
2023-04-26T05:38:03.901Z,9.55
2023-04-26T05:40:32.509Z,9.69
2023-04-26T05:43:01.469Z,9.79
2023-04-26T05:45:29.503Z,9.85
2023-04-26T05:47:57.107Z,9.69
2023-04-26T05:50:29.140Z,9.39
2023-04-26T05:53:01.433Z,9.53
2023-04-26T05:55:40.603Z,9.70
2023-04-26T05:58:12.113Z,9.79
2023-04-26T06:00:41.732Z,9.70
2023-04-26T06:03:10.055Z,9.93
2023-04-26T06:05:40.516Z,9.99
2023-04-26T06:08:10.931Z,9.89
2023-04-26T06:10:38.637Z,10.03
2023-04-26T06:13:06.830Z,10.22
2023-04-26T06:15:39.841Z,10.18
2023-04-26T06:18:07.310Z,10.25
2023-04-26T06:20:41.304Z,10.22
2023-04-26T06:23:09.572Z,10.27
2023-04-26T06:25:37.313Z,10.06
2023-04-26T06:28:05.300Z,10.14
2023-04-26T06:30:33.192Z,10.16
2023-04-26T06:33:01.212Z,10.13
2023-04-26T06:35:33.332Z,10.21
2023-04-26T06:38:03.763Z,10.38
2023-04-26T06:40:32.917Z,10.96
2023-04-26T06:43:02.388Z,13.80
2023-04-26T06:45:58.494Z,15.72
2023-04-26T06:48:26.187Z,16.32
2023-04-26T06:50:53.919Z,17.12
2023-04-26T06:53:23.192Z,17.21
2023-04-26T06:55:50.857Z,17.96
2023-04-26T06:58:21.917Z,18.44
2023-04-26T07:00:49.614Z,18.82
2023-04-26T07:03:19.698Z,18.62
2023-04-26T07:05:47.663Z,19.16
2023-04-26T07:08:15.156Z,18.27
2023-04-26T07:10:43.084Z,18.00
2023-04-26T07:13:10.701Z,18.21
2023-04-26T07:15:38.487Z,17.28
2023-04-26T07:18:05.936Z,18.34
2023-04-26T07:20:33.348Z,18.65
2023-04-26T07:23:00.657Z,18.85
2023-04-26T07:25:28.274Z,19.58
2023-04-26T07:27:55.786Z,18.96
2023-04-26T07:30:23.516Z,18.34
2023-04-26T07:32:51.253Z,19.07
2023-04-26T07:35:18.670Z,19.47
2023-04-26T07:37:46.553Z,19.64
2023-04-26T07:40:14.215Z,20.08
2023-04-26T07:42:41.826Z,20.25
2023-04-26T07:45:10.000Z,19.62
2023-04-26T07:47:40.743Z,19.95
2023-04-26T07:50:19.761Z,20.51
2023-04-26T07:52:47.922Z,19.86
2023-04-26T07:55:17.644Z,18.85
2023-04-26T07:57:51.856Z,17.19
2023-04-26T08:00:32.212Z,16.01
2023-04-26T08:02:59.949Z,16.73
2023-04-26T08:05:28.015Z,15.47
2023-04-26T08:07:55.476Z,14.59
2023-04-26T08:10:23.139Z,15.60
2023-04-26T08:12:51.905Z,14.98
2023-04-26T08:15:22.149Z,14.27
2023-04-26T08:17:54.351Z,14.11
2023-04-26T08:20:21.919Z,15.69
2023-04-26T08:22:49.338Z,17.21
2023-04-26T08:25:16.677Z,16.39
2023-04-26T08:27:45.002Z,16.87
2023-04-26T08:30:13.149Z,17.07
2023-04-26T08:32:43.402Z,17.83
2023-04-26T08:35:11.805Z,18.72
2023-04-26T08:37:45.097Z,18.72
2023-04-26T08:40:13.019Z,19.06
2023-04-26T08:42:44.408Z,18.75
2023-04-26T08:45:11.801Z,19.07
2023-04-26T08:47:43.979Z,17.49
2023-04-26T08:50:13.960Z,15.84
2023-04-26T08:52:41.907Z,15.48
2023-04-26T08:55:10.852Z,15.16
2023-04-26T08:57:39.141Z,14.41
2023-04-26T09:00:13.681Z,14.10
2023-04-26T09:02:50.483Z,14.45
2023-04-26T09:05:24.215Z,14.14
2023-04-26T09:07:53.170Z,14.49
2023-04-26T09:10:22.143Z,14.57
2023-04-26T09:12:52.478Z,15.14
2023-04-26T09:15:23.475Z,15.37
2023-04-26T09:17:52.047Z,15.77
2023-04-26T09:20:29.029Z,15.58
2023-04-26T09:23:06.760Z,15.77
2023-04-26T09:25:34.802Z,15.75
2023-04-26T09:28:02.873Z,15.04
2023-04-26T09:30:31.160Z,15.60
2023-04-26T09:33:00.251Z,15.19
2023-04-26T09:35:37.065Z,15.17
2023-04-26T09:38:11.046Z,15.51
2023-04-26T09:40:44.375Z,15.26
2023-04-26T09:43:12.796Z,15.04
2023-04-26T09:45:51.405Z,15.23
2023-04-26T09:48:28.591Z,15.19
2023-04-26T09:51:08.808Z,15.24
2023-04-26T09:54:17.801Z,15.64
2023-04-26T09:56:59.961Z,15.44
2023-04-26T09:59:27.415Z,15.43
2023-04-26T10:01:55.990Z,15.24
2023-04-26T10:04:24.456Z,15.14
2023-04-26T10:06:51.925Z,15.03
2023-04-26T10:09:19.275Z,15.57
2023-04-26T10:11:47.083Z,15.65
2023-04-26T10:14:14.688Z,15.51
2023-04-26T10:16:42.306Z,15.65
2023-04-26T10:19:12.179Z,15.54
2023-04-26T10:21:40.134Z,15.82
2023-04-26T10:24:08.548Z,15.69
2023-04-26T10:26:49.882Z,15.97
2023-04-26T10:29:18.077Z,15.55
2023-04-26T10:32:12.280Z,16.02
2023-04-26T10:34:40.484Z,15.74
2023-04-26T10:37:09.196Z,16.16
2023-04-26T10:39:37.321Z,16.30
2023-04-26T10:42:25.923Z,16.20
2023-04-26T10:44:57.198Z,15.72
2023-04-26T10:47:35.288Z,15.81
2023-04-26T10:50:12.922Z,15.82
2023-04-26T10:53:04.793Z,16.02
2023-04-26T10:55:44.366Z,15.79
2023-04-26T10:58:33.393Z,15.92
2023-04-26T11:01:08.835Z,16.04
2023-04-26T11:03:37.536Z,16.15
2023-04-26T11:06:15.454Z,15.91
2023-04-26T11:08:43.480Z,15.58
2023-04-26T11:11:12.247Z,15.94
2023-04-26T11:13:43.410Z,16.06
2023-04-26T11:16:12.254Z,15.88
2023-04-26T11:18:46.710Z,15.91
2023-04-26T11:21:19.706Z,15.58
2023-04-26T11:23:54.078Z,15.75
2023-04-26T11:26:22.154Z,15.43
2023-04-26T11:28:49.938Z,15.46
2023-04-26T11:31:18.769Z,15.77
2023-04-26T11:33:49.223Z,15.91
2023-04-26T11:36:19.899Z,16.42
2023-04-26T11:38:47.628Z,15.67
2023-04-26T11:41:23.767Z,15.34
2023-04-26T11:43:52.126Z,15.30
2023-04-26T11:46:20.421Z,15.37
2023-04-26T11:48:48.009Z,15.29
2023-04-26T11:51:18.022Z,15.14
2023-04-26T11:53:45.725Z,15.03
2023-04-26T11:56:17.045Z,14.96
2023-04-26T11:58:52.187Z,15.10
2023-04-26T12:01:23.941Z,14.76
2023-04-26T12:03:58.212Z,14.62
2023-04-26T12:06:35.632Z,15.17
2023-04-26T12:09:05.895Z,15.04
2023-04-26T12:11:33.703Z,15.51
2023-04-26T12:14:01.848Z,15.50
2023-04-26T12:16:29.182Z,15.43
2023-04-26T12:18:59.324Z,15.75
2023-04-26T12:21:30.499Z,15.88
2023-04-26T12:23:58.503Z,16.27
2023-04-26T12:26:42.639Z,16.23
2023-04-26T12:29:10.035Z,16.66
2023-04-26T12:31:37.743Z,16.80
2023-04-26T12:34:05.157Z,16.20
2023-04-26T12:36:32.585Z,15.78
2023-04-26T12:39:02.285Z,16.04
2023-04-26T12:41:29.669Z,15.50
2023-04-26T12:43:57.881Z,15.24
2023-04-26T12:46:26.223Z,15.14
2023-04-26T12:48:53.653Z,15.06
2023-04-26T12:51:21.097Z,14.75
2023-04-26T12:53:48.357Z,14.79
2023-04-26T12:56:16.544Z,14.90
2023-04-26T12:58:43.851Z,14.75
2023-04-26T13:01:12.984Z,14.78
2023-04-26T13:03:41.186Z,14.79
2023-04-26T13:06:08.870Z,14.67
2023-04-26T13:08:36.205Z,14.68
2023-04-26T13:11:03.790Z,14.51
2023-04-26T13:13:42.418Z,14.79
2023-04-26T13:16:11.906Z,14.89
2023-04-26T13:18:40.384Z,14.80
2023-04-26T13:21:07.782Z,15.17
2023-04-26T13:23:35.115Z,15.51
2023-04-26T13:26:02.770Z,15.44
2023-04-26T13:28:30.082Z,15.61
2023-04-26T13:30:57.553Z,15.68
2023-04-26T13:33:24.787Z,15.31
2023-04-26T13:35:52.213Z,14.99
2023-04-26T13:38:19.548Z,15.48
2023-04-26T13:40:47.303Z,15.46
2023-04-26T13:43:14.621Z,15.54
2023-04-26T13:45:41.960Z,15.31
2023-04-26T13:48:09.257Z,15.38
2023-04-26T13:50:37.206Z,15.06
2023-04-26T13:53:04.706Z,14.92
2023-04-26T13:55:32.216Z,15.61
2023-04-26T13:57:59.498Z,15.95
2023-04-26T14:00:27.425Z,16.06
2023-04-26T14:02:54.943Z,16.06
2023-04-26T14:05:23.775Z,15.88
2023-04-26T14:07:54.250Z,16.08
2023-04-26T14:10:22.484Z,15.91
2023-04-26T14:12:49.707Z,15.57
2023-04-26T14:15:17.325Z,15.48
2023-04-26T14:17:47.033Z,15.60
2023-04-26T14:20:14.547Z,15.77
2023-04-26T14:22:41.837Z,15.65
2023-04-26T14:25:09.728Z,15.31
2023-04-26T14:27:37.405Z,15.03
2023-04-26T14:30:05.664Z,15.09
2023-04-26T14:32:33.206Z,15.11
2023-04-26T14:35:00.837Z,15.14
2023-04-26T14:37:28.105Z,15.27
2023-04-26T14:39:55.455Z,15.53
2023-04-26T14:42:23.128Z,15.74
2023-04-26T14:44:50.394Z,15.72
2023-04-26T14:47:17.700Z,15.61
2023-04-26T14:49:45.006Z,15.40
2023-04-26T14:52:12.297Z,15.20
2023-04-26T14:54:39.972Z,14.86
2023-04-26T14:57:07.922Z,14.48
2023-04-26T14:59:35.262Z,14.34
2023-04-26T15:02:03.763Z,14.46
2023-04-26T15:04:31.365Z,14.51
2023-04-26T15:06:58.757Z,14.04
2023-04-26T15:09:30.608Z,14.06
2023-04-26T15:11:58.154Z,13.94
2023-04-26T15:14:28.549Z,13.90
2023-04-26T15:16:55.914Z,14.17
2023-04-26T15:19:23.439Z,14.38
2023-04-26T15:21:51.663Z,14.30
2023-04-26T15:24:19.051Z,14.44
2023-04-26T15:26:46.503Z,14.48
2023-04-26T15:29:13.968Z,14.34
2023-04-26T15:31:41.457Z,14.04
2023-04-26T15:34:08.983Z,14.11
2023-04-26T15:36:36.496Z,13.93
2023-04-26T15:39:04.153Z,13.73
2023-04-26T15:41:33.112Z,13.83
2023-04-26T15:44:00.669Z,13.96
2023-04-26T15:46:28.104Z,13.91
2023-04-26T15:48:55.372Z,13.80
2023-04-26T15:51:22.759Z,13.67
2023-04-26T15:53:53.327Z,13.53
2023-04-26T15:56:20.876Z,13.45
2023-04-26T15:58:48.152Z,13.34
2023-04-26T16:01:15.728Z,13.28
2023-04-26T16:03:46.495Z,13.36
2023-04-26T16:06:16.515Z,13.36
2023-04-26T16:08:43.824Z,13.43
2023-04-26T16:11:11.250Z,13.43
2023-04-26T16:13:38.549Z,13.38
2023-04-26T16:16:08.249Z,13.22
2023-04-26T16:18:35.562Z,13.08
2023-04-26T16:21:07.212Z,13.18
2023-04-26T16:23:37.892Z,13.04
2023-04-26T16:26:05.519Z,13.03
2023-04-26T16:28:32.831Z,13.01
2023-04-26T16:31:09.666Z,12.97
2023-04-26T16:33:37.047Z,12.88
2023-04-26T16:36:04.511Z,12.91
2023-04-26T16:38:31.914Z,12.77
2023-04-26T16:40:59.572Z,12.81
2023-04-26T16:43:32.971Z,12.72
2023-04-26T16:46:03.409Z,12.70
2023-04-26T16:48:37.346Z,12.57
2023-04-26T16:51:07.966Z,12.54
2023-04-26T16:53:36.099Z,12.59
2023-04-26T16:56:03.597Z,12.61
2023-04-26T16:58:30.960Z,12.59
2023-04-26T17:00:58.306Z,12.54
2023-04-26T17:03:26.073Z,12.49
2023-04-26T17:05:53.587Z,12.52
2023-04-26T17:08:21.160Z,12.56
2023-04-26T17:10:50.885Z,12.56
2023-04-26T17:13:19.194Z,12.57
2023-04-26T17:15:47.144Z,12.56
2023-04-26T17:18:14.661Z,12.45
2023-04-26T17:20:42.387Z,12.46
2023-04-26T17:23:10.163Z,12.40
2023-04-26T17:25:37.402Z,12.21
2023-04-26T17:28:07.350Z,12.14
2023-04-26T17:30:34.593Z,12.08
2023-04-26T17:33:02.445Z,12.08
2023-04-26T17:35:29.765Z,12.11
2023-04-26T17:37:57.188Z,12.16
2023-04-26T17:40:24.409Z,12.22
2023-04-26T17:42:51.825Z,12.22
2023-04-26T17:45:19.176Z,11.95
2023-04-26T17:47:46.830Z,11.85
2023-04-26T17:50:15.500Z,11.79
2023-04-26T17:52:42.789Z,11.75
2023-04-26T17:55:10.252Z,11.78
2023-04-26T17:57:37.798Z,11.74
2023-04-26T18:00:06.904Z,11.67
2023-04-26T18:02:36.321Z,11.57
2023-04-26T18:05:04.811Z,11.64
2023-04-26T18:07:32.176Z,11.50
2023-04-26T18:09:59.377Z,11.50
2023-04-26T18:12:28.019Z,11.34
2023-04-26T18:14:55.319Z,11.43
2023-04-26T18:17:22.822Z,11.43
2023-04-26T18:19:50.947Z,11.43
2023-04-26T18:22:18.287Z,11.47
2023-04-26T18:24:45.574Z,11.48
2023-04-26T18:27:14.115Z,11.37
2023-04-26T18:29:41.644Z,11.40
2023-04-26T18:32:08.951Z,11.50
2023-04-26T18:34:36.267Z,11.40
2023-04-26T18:37:03.777Z,11.26
2023-04-26T18:39:31.675Z,11.26
2023-04-26T18:41:58.959Z,11.19
2023-04-26T18:44:26.225Z,11.16
2023-04-26T18:46:55.910Z,11.13
2023-04-26T18:49:23.909Z,11.00
2023-04-26T18:51:51.174Z,10.92
2023-04-26T18:54:18.491Z,10.96
2023-04-26T18:56:45.792Z,11.00
2023-04-26T18:59:13.270Z,10.75
2023-04-26T19:01:41.105Z,10.57
2023-04-26T19:04:09.198Z,10.42
2023-04-26T19:06:36.603Z,10.54
2023-04-26T19:09:06.119Z,10.33
2023-04-26T19:11:33.498Z,10.38
2023-04-26T19:14:00.905Z,10.45
2023-04-26T19:16:28.596Z,10.49
2023-04-26T19:18:55.944Z,10.57
2023-04-26T19:21:23.134Z,10.57
2023-04-26T19:23:50.612Z,10.49
2023-04-26T19:26:18.081Z,10.44
2023-04-26T19:28:45.606Z,10.34
2023-04-26T19:31:13.095Z,10.30
2023-04-26T19:33:40.650Z,10.24
2023-04-26T19:36:09.137Z,10.10
2023-04-26T19:38:36.373Z,10.06
2023-04-26T19:41:03.620Z,9.93
2023-04-26T19:43:31.004Z,9.80
2023-04-26T19:45:58.184Z,9.96
2023-04-26T19:48:26.476Z,9.99
2023-04-26T19:50:53.664Z,10.06
2023-04-26T19:53:21.050Z,10.09
2023-04-26T19:55:48.859Z,10.09
2023-04-26T19:58:16.391Z,9.94
2023-04-26T20:00:43.869Z,10.11
2023-04-26T20:03:11.403Z,10.27
2023-04-26T20:05:38.727Z,10.20
2023-04-26T20:08:05.967Z,9.99
2023-04-26T20:10:34.049Z,9.94
2023-04-26T20:13:02.479Z,10.07
2023-04-26T20:15:32.173Z,10.18
2023-04-26T20:18:02.313Z,10.04
2023-04-26T20:20:29.694Z,10.04
2023-04-26T20:22:57.027Z,10.10
2023-04-26T20:25:24.203Z,9.89
2023-04-26T20:27:51.549Z,9.78
2023-04-26T20:30:18.703Z,9.86
2023-04-26T20:32:46.093Z,9.87
2023-04-26T20:35:13.896Z,10.00
2023-04-26T20:37:41.113Z,9.87
2023-04-26T20:40:09.383Z,9.78
2023-04-26T20:42:36.800Z,9.93
2023-04-26T20:45:04.400Z,9.86
2023-04-26T20:47:32.123Z,9.87
2023-04-26T20:49:59.350Z,9.68
2023-04-26T20:52:26.786Z,9.68
2023-04-26T20:54:54.017Z,9.80
2023-04-26T20:57:21.252Z,9.89
2023-04-26T20:59:48.424Z,9.94
2023-04-26T21:02:16.067Z,9.96
2023-04-26T21:04:43.596Z,9.90
2023-04-26T21:07:11.213Z,9.91
2023-04-26T21:09:38.599Z,9.94
2023-04-26T21:12:06.837Z,9.96
2023-04-26T21:14:34.060Z,9.87
2023-04-26T21:17:01.527Z,9.83
2023-04-26T21:19:28.683Z,9.87
2023-04-26T21:21:56.709Z,9.83
2023-04-26T21:24:23.865Z,9.91
2023-04-26T21:26:51.111Z,9.82
2023-04-26T21:29:18.323Z,9.68
2023-04-26T21:31:45.883Z,9.56
2023-04-26T21:34:13.139Z,9.68
2023-04-26T21:36:40.482Z,9.65
2023-04-26T21:39:07.760Z,9.59
2023-04-26T21:41:35.193Z,9.35
2023-04-26T21:44:02.417Z,9.30
2023-04-26T21:46:29.809Z,9.11
2023-04-26T21:48:57.053Z,9.17
2023-04-26T21:51:24.648Z,9.12
2023-04-26T21:53:51.963Z,9.01
2023-04-26T21:56:19.196Z,8.77
2023-04-26T21:58:46.541Z,8.81
2023-04-26T22:01:14.799Z,8.66
2023-04-26T22:03:42.214Z,8.63
2023-04-26T22:06:09.814Z,8.69
2023-04-26T22:08:37.045Z,8.59
2023-04-26T22:11:04.398Z,8.54
2023-04-26T22:13:32.392Z,8.63
2023-04-26T22:15:59.881Z,8.90
2023-04-26T22:18:27.194Z,8.94
2023-04-26T22:20:54.550Z,8.94
2023-04-26T22:23:21.728Z,9.03
2023-04-26T22:25:49.105Z,9.04
2023-04-26T22:28:16.575Z,9.01
2023-04-26T22:30:43.859Z,9.03
2023-04-26T22:33:12.297Z,9.12
2023-04-26T22:35:39.858Z,9.04
2023-04-26T22:38:07.079Z,8.91
2023-04-26T22:40:35.304Z,9.03
2023-04-26T22:43:03.100Z,9.04
2023-04-26T22:45:30.422Z,9.18
2023-04-26T22:47:57.869Z,9.24
2023-04-26T22:50:25.438Z,9.22
2023-04-26T22:52:52.661Z,9.14
2023-04-26T22:55:20.051Z,8.99
2023-04-26T22:57:47.286Z,8.94
2023-04-26T23:00:15.253Z,8.97
2023-04-26T23:02:42.636Z,9.21
2023-04-26T23:05:10.376Z,9.21
2023-04-26T23:07:38.651Z,9.31
2023-04-26T23:10:06.736Z,9.35
2023-04-26T23:12:33.982Z,9.21
2023-04-26T23:15:01.926Z,9.21
2023-04-26T23:17:29.174Z,9.18
2023-04-26T23:19:56.642Z,8.99
2023-04-26T23:22:23.952Z,8.90
2023-04-26T23:24:51.712Z,8.76
2023-04-26T23:27:20.872Z,8.88
2023-04-26T23:29:49.944Z,8.96
2023-04-26T23:32:17.085Z,8.93
2023-04-26T23:34:44.428Z,9.11
2023-04-26T23:37:11.618Z,9.27
2023-04-26T23:39:38.887Z,9.22
2023-04-26T23:42:06.692Z,9.21
2023-04-26T23:44:34.006Z,9.20
2023-04-26T23:47:01.255Z,9.10
2023-04-26T23:49:28.669Z,9.05
2023-04-26T23:51:55.966Z,9.15
2023-04-26T23:54:23.248Z,9.22
2023-04-26T23:56:50.816Z,9.27
2023-04-26T23:59:18.273Z,9.12
